Sankuniki — JD2465 — position and weather

sailwx.info

Track history (hours):
 
Tides and Currents Weather Stations Pressure Air Temp Water Temp Dewpoint Dewpoint Depression Visibility Wind Speed Wind Dir Waves Ship Positions

Sankuniki

Last reported at 2014-Dec-19 03:33 UTC. Time now 2014-Dec-20 15:06 UTC.
Position N 35°16' E 139°46'.

Length 71 m; draft 4.2 m.

Type: Cargo ship. MMSI: 431000269.

Date/timePositionNaut miles runAvg speedWind from/ knotsBaromVisibWave heightAir tempDewpointWater temp
2014-Dec-19 03:33N 35°16' E 139°46'10 9.9
2014-Dec-19 02:32N 35°26' E 139°45'9 2.2
2014-Dec-18 22:29N 35°29' E 139°56'0 0.1
2014-Dec-18 21:33N 35°29' E 139°56'0 0.0
2014-Dec-18 19:33N 35°29' E 139°56'0 0.0
2014-Dec-18 18:31N 35°29' E 139°56'0 0.0
2014-Dec-18 17:20N 35°29' E 139°56'0 0.1
2014-Dec-18 16:30N 35°29' E 139°56'0 0.0
2014-Dec-18 15:31N 35°29' E 139°56'0 0.0
2014-Dec-18 14:33N 35°29' E 139°56'0 0.0
2014-Dec-18 13:12N 35°29' E 139°56'0 0.0
2014-Dec-18 09:29N 35°29' E 139°56'0 0.0
2014-Dec-18 08:08N 35°29' E 139°56'0 0.0
2014-Dec-18 06:22N 35°29' E 139°56'3 0.4
2014-Dec-17 22:10N 35°28' E 139°52'710.9
2014-Dec-17 21:33N 35°22' E 139°53'0 0.1
2014-Dec-17 20:33N 35°22' E 139°53'0 0.0
2014-Dec-17 19:33N 35°22' E 139°53'0 0.0
2014-Dec-17 18:33N 35°22' E 139°53'0 0.0
2014-Dec-17 17:33N 35°22' E 139°53'0 0.0
2014-Dec-17 16:33N 35°22' E 139°53'0 0.0
2014-Dec-17 15:31N 35°22' E 139°53'0 0.0
2014-Dec-17 14:17N 35°22' E 139°53'0 0.0
2014-Dec-17 13:10N 35°22' E 139°53'0 0.0
2014-Dec-17 12:07N 35°22' E 139°53'0 0.0
2014-Dec-17 11:32N 35°22' E 139°53'8 2.0
2014-Dec-17 07:33N 35°26' E 139°44'5 5.0
2014-Dec-17 06:33N 35°29' E 139°39'0 0.0
2014-Dec-17 05:33N 35°29' E 139°39'0 0.0
2014-Dec-17 04:33N 35°29' E 139°39'0 0.0
2014-Dec-17 03:33N 35°29' E 139°39'0 0.0
2014-Dec-17 02:33N 35°29' E 139°39'0 0.0
2014-Dec-17 01:33N 35°29' E 139°39'0 0.0
2014-Dec-17 00:33N 35°29' E 139°39'0 0.0
2014-Dec-16 23:33N 35°29' E 139°39'0 0.0
2014-Dec-16 22:33N 35°29' E 139°39'0 0.0
2014-Dec-16 21:33N 35°29' E 139°39'0 0.0
2014-Dec-16 20:33N 35°29' E 139°39'0 0.0
2014-Dec-16 19:33N 35°29' E 139°39'0 0.0
2014-Dec-16 18:33N 35°29' E 139°39'0 0.0
2014-Dec-16 17:33N 35°29' E 139°39'0 0.0
2014-Dec-16 16:33N 35°29' E 139°39'0 0.0
2014-Dec-16 15:33N 35°29' E 139°39'0 0.0
2014-Dec-16 14:33N 35°29' E 139°39'0 0.0
2014-Dec-16 13:33N 35°29' E 139°39'0 0.0
2014-Dec-16 12:33N 35°29' E 139°39'0 0.0
2014-Dec-16 11:33N 35°29' E 139°39'0 0.0
2014-Dec-16 10:33N 35°29' E 139°39'0 0.0
2014-Dec-16 09:33N 35°29' E 139°39'0 0.0
2014-Dec-16 08:33N 35°29' E 139°39'0 0.0
2014-Dec-16 07:33N 35°29' E 139°39'0 0.0
2014-Dec-16 06:33N 35°29' E 139°39'0 0.0
2014-Dec-16 05:33N 35°29' E 139°39'5 4.9
2014-Dec-16 04:33N 35°27' E 139°44'8 0.9
2014-Dec-15 19:11N 35°29' E 139°54'812.4
2014-Dec-15 18:33N 35°24' E 139°46'  
Track history (hours):
 
Tides and Currents Weather Stations Pressure Air Temp Water Temp Dewpoint Dewpoint Depression Visibility Wind Speed Wind Dir Waves Ship Positions

Sankuniki

Last reported at 2014-Dec-19 03:33 UTC. Time now 2014-Dec-20 15:06 UTC.
Position N 35°16' E 139°46'.

Length 71 m; draft 4.2 m.

Type: Cargo ship. MMSI: 431000269.

Date/timePositionNaut miles runAvg speedWind from/ knotsBaromVisibWave heightAir tempDewpointWater temp
2014-Dec-19 03:33N 35°16' E 139°46'10 9.9
2014-Dec-19 02:32N 35°26' E 139°45'9 2.2
2014-Dec-18 22:29N 35°29' E 139°56'0 0.1
2014-Dec-18 21:33N 35°29' E 139°56'0 0.0
2014-Dec-18 19:33N 35°29' E 139°56'0 0.0
2014-Dec-18 18:31N 35°29' E 139°56'0 0.0
2014-Dec-18 17:20N 35°29' E 139°56'0 0.1
2014-Dec-18 16:30N 35°29' E 139°56'0 0.0
2014-Dec-18 15:31N 35°29' E 139°56'0 0.0
2014-Dec-18 14:33N 35°29' E 139°56'0 0.0
2014-Dec-18 13:12N 35°29' E 139°56'0 0.0
2014-Dec-18 09:29N 35°29' E 139°56'0 0.0
2014-Dec-18 08:08N 35°29' E 139°56'0 0.0
2014-Dec-18 06:22N 35°29' E 139°56'3 0.4
2014-Dec-17 22:10N 35°28' E 139°52'710.9
2014-Dec-17 21:33N 35°22' E 139°53'0 0.1
2014-Dec-17 20:33N 35°22' E 139°53'0 0.0
2014-Dec-17 19:33N 35°22' E 139°53'0 0.0
2014-Dec-17 18:33N 35°22' E 139°53'0 0.0
2014-Dec-17 17:33N 35°22' E 139°53'0 0.0
2014-Dec-17 16:33N 35°22' E 139°53'0 0.0
2014-Dec-17 15:31N 35°22' E 139°53'0 0.0
2014-Dec-17 14:17N 35°22' E 139°53'0 0.0
2014-Dec-17 13:10N 35°22' E 139°53'0 0.0
2014-Dec-17 12:07N 35°22' E 139°53'0 0.0
2014-Dec-17 11:32N 35°22' E 139°53'8 2.0
2014-Dec-17 07:33N 35°26' E 139°44'5 5.0
2014-Dec-17 06:33N 35°29' E 139°39'0 0.0
2014-Dec-17 05:33N 35°29' E 139°39'0 0.0
2014-Dec-17 04:33N 35°29' E 139°39'0 0.0
2014-Dec-17 03:33N 35°29' E 139°39'0 0.0
2014-Dec-17 02:33N 35°29' E 139°39'0 0.0
2014-Dec-17 01:33N 35°29' E 139°39'0 0.0
2014-Dec-17 00:33N 35°29' E 139°39'0 0.0
2014-Dec-16 23:33N 35°29' E 139°39'0 0.0
2014-Dec-16 22:33N 35°29' E 139°39'0 0.0
2014-Dec-16 21:33N 35°29' E 139°39'0 0.0
2014-Dec-16 20:33N 35°29' E 139°39'0 0.0
2014-Dec-16 19:33N 35°29' E 139°39'0 0.0
2014-Dec-16 18:33N 35°29' E 139°39'0 0.0
2014-Dec-16 17:33N 35°29' E 139°39'0 0.0
2014-Dec-16 16:33N 35°29' E 139°39'0 0.0
2014-Dec-16 15:33N 35°29' E 139°39'0 0.0
2014-Dec-16 14:33N 35°29' E 139°39'0 0.0
2014-Dec-16 13:33N 35°29' E 139°39'0 0.0
2014-Dec-16 12:33N 35°29' E 139°39'0 0.0
2014-Dec-16 11:33N 35°29' E 139°39'0 0.0
2014-Dec-16 10:33N 35°29' E 139°39'0 0.0
2014-Dec-16 09:33N 35°29' E 139°39'0 0.0
2014-Dec-16 08:33N 35°29' E 139°39'0 0.0
2014-Dec-16 07:33N 35°29' E 139°39'0 0.0
2014-Dec-16 06:33N 35°29' E 139°39'0 0.0
2014-Dec-16 05:33N 35°29' E 139°39'5 4.9
2014-Dec-16 04:33N 35°27' E 139°44'8 0.9
2014-Dec-15 19:11N 35°29' E 139°54'812.4
2014-Dec-15 18:33N 35°24' E 139°46'  

Dump ship's entire track history